Time;durP1;ratioP1;P1;durP2;ratioP2;P2;SDS_P1;SDS_P2;PMS_P1;PMS_P2;Temp;Humidity;BMP_temperature;BMP_pressure;BME280_temperature;BME280_humidity;BME280_pressure;Samples;Min_cycle;Max_cycle;Signal;HPM_P1;HPM_P2
2021/10/04 00:00:01;;;;;;;1.40;0.73;;;;;;;11.39;97.27;100674.63;5068308;28;20036;-74
2021/10/04 00:02:37;;;;;;;2.30;0.73;;;;;;;11.45;97.06;100690.00;5068187;28;20381;-74
2021/10/04 00:05:02;;;;;;;2.28;1.20;;;;;;;11.46;96.67;100696.19;5050696;28;20040;-74
2021/10/04 00:07:28;;;;;;;2.17;0.57;;;;;;;11.44;96.67;100703.53;5068097;28;20029;-74
2021/10/04 00:09:53;;;;;;;1.93;0.70;;;;;;;11.40;97.08;100711.91;5068201;28;20282;-74
2021/10/04 00:12:19;;;;;;;2.77;0.80;;;;;;;11.38;96.63;100703.22;5050457;28;20275;-74
2021/10/04 00:14:44;;;;;;;4.20;1.13;;;;;;;11.33;97.16;100704.69;5050599;28;20465;-74
2021/10/04 00:17:10;;;;;;;2.77;0.70;;;;;;;11.39;96.67;100712.88;5033863;28;20751;-73
2021/10/04 00:19:35;;;;;;;0.77;0.57;;;;;;;11.30;97.20;100729.94;5050274;28;20564;-73
2021/10/04 00:22:02;;;;;;;1.80;0.80;;;;;;;11.30;97.29;100719.25;5050533;28;20274;-74
2021/10/04 00:24:27;;;;;;;5.53;0.73;;;;;;;11.34;97.33;100733.13;5067971;28;20033;-74
2021/10/04 00:26:53;;;;;;;1.27;0.73;;;;;;;11.29;97.52;100722.09;5067689;28;20052;-74
2021/10/04 00:29:19;;;;;;;3.35;1.45;;;;;;;11.30;97.62;100723.75;5066993;28;20036;-73
2021/10/04 00:31:48;;;;;;;2.58;0.90;;;;;;;11.19;97.34;100722.25;5068125;28;20393;-73
2021/10/04 00:34:14;;;;;;;1.83;1.02;;;;;;;11.23;97.24;100731.59;5059787;28;20118;-74
2021/10/04 00:36:39;;;;;;;1.02;0.80;;;;;;;11.21;97.75;100738.94;5051771;28;20040;-74
2021/10/04 00:39:05;;;;;;;1.57;0.90;;;;;;;11.21;97.63;100752.31;5071661;28;20127;-74
2021/10/04 00:41:31;;;;;;;2.90;1.25;;;;;;;11.26;97.91;100757.16;5054348;28;20072;-74
2021/10/04 00:43:57;;;;;;;;;;;;;;;11.19;98.24;100759.66;5071254;28;20037;-74
2021/10/04 00:46:23;;;;;;;;;;;;;;;11.12;98.16;100755.97;5037775;28;19943;-74
2021/10/04 00:48:49;;;;;;;2.20;0.85;;;;;;;11.10;98.67;100766.03;5054007;28;19971;-74
2021/10/04 00:51:15;;;;;;;4.90;1.17;;;;;;;11.16;98.51;100765.34;5054025;28;20072;-74
2021/10/04 00:53:42;;;;;;;2.78;1.15;;;;;;;11.13;98.25;100757.66;5071534;28;20047;-73
2021/10/04 00:56:08;;;;;;;2.88;1.00;;;;;;;11.07;99.00;100763.66;5070341;28;20036;-73
2021/10/04 00:58:34;;;;;;;3.67;1.08;;;;;;;10.98;99.31;100777.03;5053784;28;20043;-74
2021/10/04 01:01:00;;;;;;;4.03;1.17;;;;;;;10.97;99.01;100782.50;5069939;28;20450;-73
2021/10/04 01:03:25;;;;;;;5.53;1.55;;;;;;;10.93;99.47;100782.03;5071391;28;20039;-73
2021/10/04 01:05:51;;;;;;;1.87;1.43;;;;;;;10.96;99.63;100784.34;5053541;28;20029;-74
2021/10/04 01:08:16;;;;;;;3.70;1.23;;;;;;;10.98;99.65;100782.34;5053761;28;20033;-74
2021/10/04 01:10:42;;;;;;;5.63;1.80;;;;;;;10.95;99.39;100784.50;5071195;28;20954;-74
2021/10/04 01:13:07;;;;;;;3.63;1.70;;;;;;;10.85;99.61;100782.00;5053671;28;20067;-74
2021/10/04 01:15:33;;;;;;;5.45;2.20;;;;;;;10.90;99.76;100798.34;5071079;28;20036;-74
2021/10/04 01:17:58;;;;;;;6.67;1.67;;;;;;;10.80;99.92;100784.31;5070182;28;20064;-73
2021/10/04 01:20:26;;;;;;;4.85;1.75;;;;;;;10.80;100.00;100804.84;5052879;28;20036;-74
2021/10/04 01:22:54;;;;;;;4.63;1.88;;;;;;;10.82;100.00;100809.03;5071086;28;20064;-74
2021/10/04 01:25:20;;;;;;;4.28;1.88;;;;;;;10.75;100.00;100797.31;5070493;28;20017;-73
2021/10/04 01:27:48;;;;;;;5.60;2.22;;;;;;;10.76;100.00;100804.31;5069718;28;20119;-74
2021/10/04 01:30:16;;;;;;;3.75;2.08;;;;;;;10.80;100.00;100812.88;5070581;28;20032;-74
2021/10/04 01:32:42;;;;;;;7.88;2.53;;;;;;;10.79;100.00;100812.00;5069908;28;20036;-73
2021/10/04 01:35:09;;;;;;;5.38;2.97;;;;;;;10.79;100.00;100817.34;5051639;28;20054;-73
2021/10/04 01:37:34;;;;;;;3.30;2.30;;;;;;;10.69;100.00;100817.50;5070678;28;20063;-73
2021/10/04 01:40:00;;;;;;;10.88;2.67;;;;;;;10.68;100.00;100825.69;5053013;28;20119;-74
2021/10/04 01:42:26;;;;;;;8.77;2.90;;;;;;;10.54;100.00;100827.13;5053036;28;20098;-73
2021/10/04 01:44:52;;;;;;;4.60;2.97;;;;;;;10.62;100.00;100832.47;5052721;28;20499;-74
2021/10/04 01:47:17;;;;;;;4.70;2.83;;;;;;;10.45;100.00;100820.91;5069555;28;20109;-73
2021/10/04 01:49:45;;;;;;;5.27;3.07;;;;;;;10.55;100.00;100832.28;5069485;28;20040;-73
2021/10/04 01:52:12;;;;;;;4.78;2.55;;;;;;;10.57;100.00;100835.63;5070601;28;20098;-73
2021/10/04 01:54:38;;;;;;;;;;;;;;;10.61;100.00;100836.16;5052964;28;20060;-73
2021/10/04 01:57:04;;;;;;;7.03;3.53;;;;;;;10.57;100.00;100824.13;5069495;28;20359;-73
2021/10/04 01:59:29;;;;;;;7.70;3.25;;;;;;;10.56;100.00;100833.97;5052413;28;20039;-73
2021/10/04 02:01:55;;;;;;;6.57;3.03;;;;;;;10.55;100.00;100840.28;5069988;28;20139;-73
2021/10/04 02:04:20;;;;;;;7.45;3.05;;;;;;;10.60;100.00;100842.47;5052590;28;20032;-74
2021/10/04 02:06:49;;;;;;;4.68;2.75;;;;;;;10.58;100.00;100857.81;5070006;28;20427;-74
2021/10/04 02:09:16;;;;;;;7.40;3.50;;;;;;;10.52;100.00;100861.97;5069957;28;20036;-74
2021/10/04 02:11:42;;;;;;;6.10;3.28;;;;;;;10.54;100.00;100868.00;5069091;28;20032;-74
2021/10/04 02:14:07;;;;;;;7.17;3.90;;;;;;;10.51;100.00;100867.47;5068925;28;20032;-74
2021/10/04 02:16:33;;;;;;;9.00;3.00;;;;;;;10.48;100.00;100852.59;5068858;28;20761;-74
2021/10/04 02:18:58;;;;;;;7.07;3.20;;;;;;;10.56;100.00;100860.66;5052297;28;20293;-74
2021/10/04 02:21:23;;;;;;;7.10;2.87;;;;;;;10.54;100.00;100868.00;5035556;28;20029;-74
2021/10/04 02:23:49;;;;;;;5.50;3.50;;;;;;;10.50;100.00;100866.63;5052336;28;20162;-74
2021/10/04 02:26:14;;;;;;;5.87;2.90;;;;;;;10.48;100.00;100863.28;5051643;28;20032;-74
2021/10/04 02:28:40;;;;;;;3.90;2.83;;;;;;;10.51;100.00;100872.81;5068941;28;20450;-74
2021/10/04 02:31:06;;;;;;;5.68;3.08;;;;;;;10.48;100.00;100857.94;5069415;28;20423;-74
2021/10/04 02:33:31;;;;;;;6.57;3.30;;;;;;;10.53;100.00;100884.16;5052234;28;20370;-74
2021/10/04 02:35:57;;;;;;;5.80;3.33;;;;;;;10.54;100.00;100883.19;5034996;28;20032;-74
2021/10/04 02:38:22;;;;;;;9.43;3.57;;;;;;;10.49;100.00;100869.47;5068619;28;20028;-74
2021/10/04 02:40:49;;;;;;;5.87;2.47;;;;;;;10.48;100.00;100873.97;5051927;28;20441;-74
2021/10/04 02:43:18;;;;;;;5.72;3.28;;;;;;;10.55;100.00;100885.66;5068453;28;20796;-73
2021/10/04 02:45:45;;;;;;;6.47;3.08;;;;;;;10.56;99.96;100884.69;5068209;28;20044;-73
2021/10/04 02:48:11;;;;;;;3.60;2.65;;;;;;;10.57;99.89;100888.19;5069226;28;20024;-73
2021/10/04 02:50:37;;;;;;;8.67;3.03;;;;;;;10.56;99.89;100902.56;5051545;28;20036;-74
2021/10/04 02:53:02;;;;;;;5.95;2.50;;;;;;;10.50;100.00;100882.66;5051693;28;20055;-73
2021/10/04 02:55:28;;;;;;;8.77;4.03;;;;;;;10.50;100.00;100879.97;5051621;28;20040;-74
2021/10/04 02:57:54;;;;;;;7.00;2.97;;;;;;;10.50;100.00;100882.66;5051451;28;20025;-73
2021/10/04 03:00:19;;;;;;;7.75;3.83;;;;;;;10.46;100.00;100875.94;5068084;28;20045;-73
2021/10/04 03:02:45;;;;;;;7.40;3.47;;;;;;;10.49;99.90;100878.31;5068613;28;20069;-73
2021/10/04 03:05:11;;;;;;;10.53;3.70;;;;;;;10.55;99.64;100876.84;5068065;28;20336;-73
2021/10/04 03:07:37;;;;;;;10.20;4.32;;;;;;;10.44;99.76;100861.94;5068653;28;20294;-74
2021/10/04 03:10:04;;;;;;;10.00;3.92;;;;;;;10.54;99.69;100872.50;5051357;28;20044;-74
2021/10/04 03:12:29;;;;;;;10.05;5.05;;;;;;;10.56;99.60;100867.84;5068033;28;20038;-74
2021/10/04 03:14:54;;;;;;;7.23;4.20;;;;;;;10.57;99.11;100861.50;5068718;28;20040;-74
2021/10/04 03:17:20;;;;;;;7.88;4.22;;;;;;;10.53;99.34;100852.97;5067467;28;20038;-74
2021/10/04 03:19:46;;;;;;;11.40;4.27;;;;;;;10.48;99.45;100857.94;5068585;28;20032;-73
2021/10/04 03:22:11;;;;;;;8.80;4.90;;;;;;;10.36;99.83;100853.88;5067778;28;20044;-73
2021/10/04 03:24:37;;;;;;;14.60;4.40;;;;;;;10.46;99.65;100873.28;5067521;28;20024;-73
2021/10/04 03:27:03;;;;;;;8.63;4.07;;;;;;;10.41;99.82;100878.25;5051029;28;20358;-73
2021/10/04 03:29:28;;;;;;;6.10;3.67;;;;;;;10.40;99.75;100865.91;5068278;28;20029;-74
2021/10/04 03:31:54;;;;;;;11.53;3.67;;;;;;;10.47;99.38;100871.47;5050850;28;20090;-74
2021/10/04 03:34:19;;;;;;;8.87;4.70;;;;;;;10.46;99.44;100872.44;5050693;28;20094;-74
2021/10/04 03:36:45;;;;;;;8.75;3.95;;;;;;;10.40;99.47;100862.41;5068514;28;20036;-73
2021/10/04 03:39:11;;;;;;;9.73;3.70;;;;;;;10.35;99.49;100869.06;5067264;28;20060;-74
2021/10/04 03:41:37;;;;;;;21.45;5.50;;;;;;;10.34;100.00;100882.56;5034425;28;20040;-74
2021/10/04 03:44:03;;;;;;;9.13;3.60;;;;;;;10.38;100.00;100899.09;5068260;28;20471;-74
2021/10/04 03:46:29;;;;;;;6.60;3.50;;;;;;;10.37;99.74;100897.41;5068221;28;20025;-73
2021/10/04 03:48:55;;;;;;;8.80;3.28;;;;;;;10.38;99.53;100897.25;5068090;28;20032;-74
2021/10/04 03:51:20;;;;;;;9.13;3.33;;;;;;;10.33;99.10;100896.91;5067560;28;20056;-74
2021/10/04 03:53:45;;;;;;;5.43;3.07;;;;;;;10.26;100.00;100902.00;5068370;28;20094;-73
2021/10/04 03:56:11;;;;;;;11.17;3.23;;;;;;;10.26;100.00;100912.66;5050507;28;20024;-73
2021/10/04 03:58:37;;;;;;;7.33;3.30;;;;;;;10.28;99.95;100907.19;5067198;28;20877;-73
2021/10/04 04:01:03;;;;;;;6.80;3.00;;;;;;;10.38;99.74;100915.94;5050049;28;20484;-73
2021/10/04 04:03:29;;;;;;;9.80;3.85;;;;;;;10.36;99.64;100912.59;5067315;28;20098;-73
2021/10/04 04:05:54;;;;;;;8.93;2.80;;;;;;;10.37;99.13;100902.75;5050131;28;20024;-73
2021/10/04 04:08:21;;;;;;;5.47;3.13;;;;;;;10.31;99.42;100898.88;5068349;28;20121;-73
2021/10/04 04:10:46;;;;;;;10.20;2.78;;;;;;;10.27;99.36;100900.16;5051096;28;20167;-74
2021/10/04 04:13:11;;;;;;;7.47;2.60;;;;;;;10.44;98.73;100912.66;5074020;28;20123;-74
2021/10/04 04:15:37;;;;;;;5.03;2.30;;;;;;;10.44;98.94;100920.66;5074526;28;20765;-73
2021/10/04 04:18:02;;;;;;;5.03;2.90;;;;;;;10.40;99.06;100913.13;5073447;28;20430;-74
2021/10/04 04:20:28;;;;;;;6.30;2.57;;;;;;;10.35;99.00;100927.78;5074481;28;20056;-73
2021/10/04 04:22:53;;;;;;;5.23;2.27;;;;;;;10.32;99.26;100924.56;5073924;28;20157;-74
2021/10/04 04:25:19;;;;;;;4.10;2.23;;;;;;;10.34;99.37;100927.91;5056626;28;20044;-73
2021/10/04 04:27:44;;;;;;;9.20;3.13;;;;;;;10.21;99.21;100909.63;5074457;28;20097;-74
2021/10/04 04:30:12;;;;;;;7.57;2.07;;;;;;;10.34;99.00;100926.09;5056647;28;20381;-74
2021/10/04 04:32:38;;;;;;;3.95;2.30;;;;;;;10.26;99.70;100922.50;5074808;28;20047;-74
2021/10/04 04:35:06;;;;;;;;;;;;;;;10.27;99.39;100921.50;5073719;28;20576;-73
2021/10/04 04:37:39;;;;;;;4.88;2.70;;;;;;;10.28;99.56;100929.41;5073705;28;20428;-73
2021/10/04 04:40:07;;;;;;;8.45;3.35;;;;;;;10.24;99.28;100924.50;5056552;28;20044;-74
2021/10/04 04:42:33;;;;;;;7.22;3.30;;;;;;;10.14;99.70;100933.44;5073624;28;20067;-74
2021/10/04 04:44:58;;;;;;;11.48;3.08;;;;;;;10.19;100.00;100950.81;5056744;28;20377;-74
2021/10/04 04:47:24;;;;;;;7.67;2.97;;;;;;;10.25;99.84;100955.50;5056919;28;20098;-74
2021/10/04 04:49:50;;;;;;;7.22;2.63;;;;;;;10.27;99.53;100964.19;5056573;28;20032;-74
2021/10/04 04:52:15;;;;;;;6.47;2.33;;;;;;;10.23;99.47;100970.84;5056850;28;20044;-74
2021/10/04 04:54:40;;;;;;;6.93;2.40;;;;;;;10.24;99.38;100965.34;5073459;28;20047;-74
2021/10/04 04:57:06;;;;;;;8.10;2.47;;;;;;;10.29;99.32;100968.41;5056510;28;20048;-74
2021/10/04 04:59:33;;;;;;;6.83;2.57;;;;;;;10.36;99.07;100976.66;5074286;28;20032;-73
2021/10/04 05:01:58;;;;;;;4.63;2.20;;;;;;;10.33;98.69;100963.63;5056210;28;20044;-74
2021/10/04 05:04:24;;;;;;;5.03;2.60;;;;;;;10.35;98.54;100959.81;5056584;28;20033;-73
2021/10/04 05:06:50;;;;;;;7.97;3.90;;;;;;;10.28;98.93;100941.88;5072987;28;20496;-74
2021/10/04 05:09:15;;;;;;;5.07;2.60;;;;;;;10.31;98.73;100952.25;5074230;28;20036;-74
2021/10/04 05:11:41;;;;;;;9.60;3.80;;;;;;;10.34;98.58;100965.28;5074275;28;20044;-74
2021/10/04 05:14:07;;;;;;;8.90;3.90;;;;;;;10.33;98.64;100960.97;5056373;28;20485;-74
2021/10/04 05:16:32;;;;;;;7.40;2.42;;;;;;;10.35;98.68;100959.81;5072010;28;20389;-74
2021/10/04 05:18:57;;;;;;;10.60;2.90;;;;;;;10.41;98.36;100979.69;5055783;28;20048;-74
2021/10/04 05:21:23;;;;;;;8.97;3.50;;;;;;;10.40;98.46;100975.34;5056695;28;20036;-73
2021/10/04 05:23:49;;;;;;;6.80;2.42;;;;;;;10.34;98.21;100967.97;5070516;28;20032;-74
2021/10/04 05:26:15;;;;;;;8.83;2.20;;;;;;;10.31;98.37;100965.59;5069470;28;20129;-74
2021/10/04 05:28:40;;;;;;;13.15;4.15;;;;;;;10.26;98.57;100976.72;5053307;28;20047;-74
2021/10/04 05:31:06;;;;;;;11.65;4.25;;;;;;;10.32;98.74;100980.63;5069610;28;20091;-74
2021/10/04 05:33:31;;;;;;;10.50;3.70;;;;;;;10.26;98.49;100984.72;5053232;28;20017;-73
2021/10/04 05:35:56;;;;;;;9.37;3.73;;;;;;;10.25;98.85;100983.03;5053000;28;20032;-73
2021/10/04 05:38:22;;;;;;;6.10;2.90;;;;;;;10.29;99.15;100996.94;5069764;28;20187;-73
2021/10/04 05:40:49;;;;;;;7.22;3.45;;;;;;;10.29;99.46;101008.44;5070564;28;20068;-74
2021/10/04 05:43:14;;;;;;;9.35;3.28;;;;;;;10.27;99.09;101006.91;5069836;28;20047;-74
2021/10/04 05:45:40;;;;;;;8.95;2.95;;;;;;;10.26;99.76;101013.25;5052856;28;20040;-73
2021/10/04 05:48:06;;;;;;;10.45;3.38;;;;;;;10.27;99.35;101025.56;5070500;28;20040;-74
2021/10/04 05:50:31;;;;;;;8.07;3.90;;;;;;;10.23;99.55;101021.53;5052759;28;20052;-74
2021/10/04 05:52:57;;;;;;;6.78;2.88;;;;;;;10.18;99.68;101016.66;5052766;28;20456;-73
2021/10/04 05:55:22;;;;;;;7.40;2.93;;;;;;;10.21;99.64;101023.50;5070429;28;20032;-74
2021/10/04 05:57:48;;;;;;;8.30;2.80;;;;;;;10.22;99.80;101025.22;5070207;28;20048;-73
2021/10/04 06:00:14;;;;;;;10.73;3.78;;;;;;;10.24;99.88;101034.72;5069344;28;20071;-73
2021/10/04 06:02:40;;;;;;;7.20;2.90;;;;;;;10.34;99.76;101032.84;5069949;28;20386;-73
2021/10/04 06:05:08;;;;;;;6.60;2.87;;;;;;;10.32;99.46;101023.31;5052632;28;20067;-74
2021/10/04 06:07:34;;;;;;;9.93;4.47;;;;;;;10.29;99.76;101024.47;5069231;28;20298;-73
2021/10/04 06:10:00;;;;;;;8.05;3.80;;;;;;;10.25;99.89;101027.56;5052438;28;20131;-73
2021/10/04 06:12:28;;;;;;;10.23;3.97;;;;;;;10.18;100.00;101022.00;5069289;28;20119;-74
2021/10/04 06:14:58;;;;;;;7.00;3.50;;;;;;;10.24;100.00;101039.25;5068901;28;20082;-73
2021/10/04 06:17:24;;;;;;;8.75;3.13;;;;;;;10.23;100.00;101038.41;5069958;28;20093;-74
2021/10/04 06:19:50;;;;;;;10.27;3.20;;;;;;;10.25;100.00;101049.75;5069812;28;20036;-74
2021/10/04 06:22:35;;;;;;;10.23;3.00;;;;;;;10.31;100.00;101043.84;5070478;28;20056;-73
2021/10/04 06:25:01;;;;;;;6.80;3.63;;;;;;;10.28;100.00;101040.63;5052096;28;20033;-74
2021/10/04 06:27:26;;;;;;;8.80;3.77;;;;;;;10.35;99.61;101034.53;5052202;28;20039;-74
2021/10/04 06:29:51;;;;;;;10.20;3.80;;;;;;;10.43;99.54;101043.59;5051887;28;20292;-74
2021/10/04 06:32:17;;;;;;;6.00;3.10;;;;;;;10.45;99.37;101036.28;5069993;28;20040;-74
2021/10/04 06:34:43;;;;;;;10.80;4.17;;;;;;;10.60;98.63;101031.22;5051687;28;20454;-74
2021/10/04 06:37:08;;;;;;;10.95;3.35;;;;;;;10.53;98.31;101036.31;5069647;28;20063;-74
2021/10/04 06:39:34;;;;;;;10.30;4.57;;;;;;;10.57;98.10;101027.84;5069418;28;20039;-74
2021/10/04 06:41:59;;;;;;;9.07;3.73;;;;;;;10.63;97.82;101046.91;5035443;28;20119;-74
2021/10/04 06:44:30;;;;;;;8.48;3.88;;;;;;;10.65;97.50;101044.94;5051612;28;20497;-74
2021/10/04 06:46:56;;;;;;;9.53;4.53;;;;;;;10.54;97.05;101009.50;5051821;28;20127;-74
2021/10/04 06:49:21;;;;;;;6.83;3.67;;;;;;;10.74;96.86;101033.31;5068888;28;20044;-74
2021/10/04 06:51:47;;;;;;;6.82;3.80;;;;;;;10.77;96.98;101047.19;5069622;28;20064;-73
2021/10/04 06:54:12;;;;;;;9.73;4.37;;;;;;;10.75;96.42;101032.34;5068334;28;20041;-74
2021/10/04 06:56:38;;;;;;;8.03;4.07;;;;;;;10.88;96.58;101048.75;5051871;28;20024;-73
2021/10/04 06:59:03;;;;;;;7.43;4.57;;;;;;;10.77;95.98;101039.19;5068307;28;20036;-73
2021/10/04 07:01:29;;;;;;;11.53;4.60;;;;;;;10.90;96.20;101046.78;5034818;28;20040;-74
2021/10/04 07:03:54;;;;;;;6.78;3.88;;;;;;;10.80;96.11;101045.22;5068485;28;20032;-73
2021/10/04 07:06:20;;;;;;;6.27;3.50;;;;;;;10.86;95.87;101053.41;5034525;28;20432;-74
2021/10/04 07:08:45;;;;;;;9.40;3.93;;;;;;;11.03;95.56;101054.38;5051577;28;20140;-73
2021/10/04 07:11:10;;;;;;;11.57;3.80;;;;;;;10.89;95.29;101065.66;5050440;28;20037;-74
2021/10/04 07:13:36;;;;;;;9.80;4.37;;;;;;;10.93;95.30;101062.50;5067566;28;20032;-73
2021/10/04 07:16:02;;;;;;;7.00;3.40;;;;;;;11.11;95.59;101072.28;5068213;28;20043;-74
2021/10/04 07:18:28;;;;;;;;;;;;;;;11.49;94.06;101080.84;5068253;28;20040;-74
2021/10/04 07:20:53;;;;;;;;;;;;;;;11.83;92.21;101073.59;5068808;28;19919;-74
2021/10/04 07:23:19;;;;;;;11.47;3.67;;;;;;;11.91;90.51;101059.44;5051362;28;19924;-74
2021/10/04 07:25:44;;;;;;;4.77;3.07;;;;;;;12.44;89.14;101070.75;5050588;28;20039;-74
2021/10/04 07:28:09;;;;;;;7.23;2.80;;;;;;;12.49;87.58;101080.94;5034808;28;20335;-74
2021/10/04 07:30:35;;;;;;;6.88;3.60;;;;;;;12.07;88.70;101079.22;5051071;28;20443;-74
2021/10/04 07:33:03;;;;;;;12.80;3.15;;;;;;;11.93;89.70;101084.19;5068083;28;20072;-74
2021/10/04 07:35:29;;;;;;;9.60;2.88;;;;;;;12.04;88.98;101070.53;5068676;28;20039;-73
2021/10/04 07:37:55;;;;;;;9.35;3.42;;;;;;;11.90;89.65;101075.69;5068874;28;20028;-73
2021/10/04 07:40:22;;;;;;;7.15;3.63;;;;;;;12.30;88.92;101080.25;5068535;28;20062;-74
2021/10/04 07:42:48;;;;;;;8.35;3.10;;;;;;;12.22;88.62;101089.13;5068686;28;20032;-74
2021/10/04 07:45:14;;;;;;;6.82;2.80;;;;;;;12.06;89.51;101101.63;5050780;28;20192;-74
2021/10/04 07:47:40;;;;;;;6.37;2.90;;;;;;;12.27;89.02;101090.44;5067158;28;20071;-74
2021/10/04 07:50:10;;;;;;;8.55;4.13;;;;;;;12.19;88.49;101088.59;5068430;28;20500;-73
2021/10/04 07:52:36;;;;;;;9.23;3.20;;;;;;;11.86;89.79;101085.81;5068735;28;20036;-74
2021/10/04 07:55:01;;;;;;;7.53;3.20;;;;;;;12.02;90.17;101109.16;5050669;28;20623;-73
2021/10/04 07:57:27;;;;;;;10.07;3.58;;;;;;;12.12;90.09;101115.19;5068438;28;20419;-74
2021/10/04 07:59:53;;;;;;;11.50;3.17;;;;;;;11.92;89.99;101105.78;5050747;28;20358;-74
2021/10/04 08:02:19;;;;;;;6.82;3.42;;;;;;;11.81;90.81;101115.72;5050387;28;20043;-74
2021/10/04 08:04:44;;;;;;;5.93;3.00;;;;;;;11.85;91.13;101124.28;5067379;28;20381;-74
2021/10/04 08:07:10;;;;;;;5.43;2.70;;;;;;;11.96;91.40;101128.53;5068211;28;20036;-73
2021/10/04 08:09:35;;;;;;;9.13;2.80;;;;;;;11.84;91.52;101130.63;5067297;28;20028;-73
2021/10/04 08:12:01;;;;;;;5.18;2.95;;;;;;;12.01;91.83;101147.59;5068190;28;20037;-74
2021/10/04 08:14:27;;;;;;;6.73;2.33;;;;;;;12.08;91.64;101142.44;5068125;28;20032;-74
2021/10/04 08:16:53;;;;;;;10.18;2.97;;;;;;;12.10;90.96;101140.44;5068093;28;20275;-74
2021/10/04 08:19:18;;;;;;;7.77;2.10;;;;;;;11.92;91.20;101140.56;5067239;28;20464;-74
2021/10/04 08:21:44;;;;;;;9.50;3.45;;;;;;;11.91;91.59;101133.53;5068185;28;20048;-73
2021/10/04 08:24:09;;;;;;;7.87;2.73;;;;;;;12.10;91.56;101143.13;5050390;28;20089;-73
2021/10/04 08:26:35;;;;;;;9.90;3.05;;;;;;;12.22;91.26;101142.66;5066913;28;20055;-74
2021/10/04 08:29:00;;;;;;;11.47;3.23;;;;;;;12.28;89.97;101151.88;5050482;28;20056;-74
2021/10/04 08:31:32;;;;;;;11.03;4.03;;;;;;;12.00;90.23;101133.38;5050596;28;20039;-74
2021/10/04 08:34:01;;;;;;;7.50;2.88;;;;;;;12.01;90.71;101142.25;5050480;28;20510;-75
2021/10/04 08:36:27;;;;;;;9.82;3.47;;;;;;;12.03;90.41;101138.44;5067310;28;20032;-74
2021/10/04 08:38:53;;;;;;;6.90;2.50;;;;;;;12.10;90.09;101137.75;5066725;28;20079;-74
2021/10/04 08:41:19;;;;;;;7.20;2.63;;;;;;;12.13;90.38;101153.53;5033956;28;20454;-74
2021/10/04 08:43:47;;;;;;;6.50;2.70;;;;;;;12.47;89.74;101161.44;5066617;28;20036;-74
2021/10/04 08:46:13;;;;;;;4.35;2.63;;;;;;;12.38;89.14;101157.06;5067576;28;20120;-74
2021/10/04 08:48:40;;;;;;;9.75;2.53;;;;;;;12.32;88.66;101153.22;5066767;28;20103;-74
2021/10/04 08:51:06;;;;;;;7.38;2.38;;;;;;;12.22;89.54;101157.88;5066904;28;20037;-74
2021/10/04 08:53:31;;;;;;;5.93;2.25;;;;;;;12.54;90.17;101173.16;5067594;28;20024;-74
2021/10/04 08:55:57;;;;;;;6.23;2.23;;;;;;;12.49;88.82;101162.13;5066554;28;20051;-74
2021/10/04 08:58:23;;;;;;;6.00;2.20;;;;;;;12.68;88.50;101152.94;5069143;28;20123;-74
2021/10/04 09:00:48;;;;;;;7.73;2.70;;;;;;;12.74;87.54;101157.63;5070585;28;20430;-74
2021/10/04 09:03:14;;;;;;;6.53;2.53;;;;;;;12.81;87.42;101169.38;5071361;28;20613;-74
2021/10/04 09:05:44;;;;;;;7.73;2.37;;;;;;;12.70;88.10;101163.50;5070221;28;20041;-74
2021/10/04 09:08:12;;;;;;;9.02;3.65;;;;;;;12.81;88.06;101164.00;5070063;28;20085;-74
2021/10/04 09:10:41;;;;;;;6.25;2.97;;;;;;;12.74;88.48;101146.91;5071045;28;20036;-74
2021/10/04 09:13:09;;;;;;;10.77;3.15;;;;;;;12.88;87.29;101143.56;5070154;28;20086;-74
2021/10/04 09:15:55;;;;;;;10.20;2.63;;;;;;;12.56;87.44;101136.34;5069761;28;20066;-74
2021/10/04 09:18:23;;;;;;;6.80;2.30;;;;;;;12.64;87.78;101146.22;5053046;28;20041;-74
2021/10/04 09:20:59;;;;;;;5.63;2.13;;;;;;;12.65;88.08;101138.03;5070704;28;20036;-74
2021/10/04 09:23:33;;;;;;;6.65;2.05;;;;;;;12.63;88.63;101141.88;5070056;28;20032;-74
2021/10/04 09:26:03;;;;;;;4.05;2.13;;;;;;;12.68;88.25;101164.47;5069284;28;20523;-74
2021/10/04 09:28:42;;;;;;;7.18;2.95;;;;;;;12.72;88.63;101173.03;5070854;28;20040;-74
2021/10/04 09:31:21;;;;;;;6.68;2.22;;;;;;;12.84;87.52;101173.56;5052886;28;20047;-74
2021/10/04 09:34:07;;;;;;;10.25;3.63;;;;;;;12.75;87.85;101179.91;5071084;28;20039;-74
2021/10/04 09:36:55;;;;;;;7.13;2.53;;;;;;;12.78;88.18;101174.19;5069216;28;20105;-74
2021/10/04 09:39:31;;;;;;;4.85;2.03;;;;;;;12.78;87.46;101172.38;5069097;28;20039;-74
2021/10/04 09:42:03;;;;;;;5.10;1.80;;;;;;;12.80;87.87;101170.34;5068268;28;20043;-74
2021/10/04 09:44:43;;;;;;;12.88;2.63;;;;;;;12.84;87.61;101162.84;5051201;28;20040;-74
2021/10/04 09:47:15;;;;;;;4.97;2.10;;;;;;;12.97;87.12;101165.00;5068934;28;20024;-74
2021/10/04 09:49:52;;;;;;;4.32;2.10;;;;;;;12.87;86.88;101173.19;5068081;28;20093;-74
2021/10/04 09:52:18;;;;;;;6.28;2.25;;;;;;;12.86;87.64;101175.06;5069460;28;20102;-74
2021/10/04 09:54:46;;;;;;;6.97;2.28;;;;;;;12.93;87.16;101164.50;5070195;28;20032;-74
2021/10/04 09:57:21;;;;;;;7.25;1.90;;;;;;;12.89;87.44;101193.47;5069194;28;20036;-74
2021/10/04 09:59:48;;;;;;;6.47;3.03;;;;;;;12.82;87.84;101207.72;5052568;28;20689;-74
2021/10/04 10:02:15;;;;;;;10.27;2.30;;;;;;;12.65;88.18;101202.31;5068883;28;20054;-74
2021/10/04 10:04:43;;;;;;;4.40;2.08;;;;;;;12.82;88.74;101210.38;5069320;28;20446;-74
2021/10/04 10:07:08;;;;;;;5.05;2.20;;;;;;;12.79;88.51;101198.16;5068813;28;20032;-74
2021/10/04 10:09:36;;;;;;;8.18;2.08;;;;;;;12.83;88.65;101204.88;5069387;28;20488;-74
2021/10/04 10:12:02;;;;;;;7.63;2.75;;;;;;;12.82;88.93;101208.53;5035812;28;20075;-74
2021/10/04 10:14:27;;;;;;;5.47;1.90;;;;;;;12.83;88.52;101199.50;5069961;28;20446;-74
2021/10/04 10:16:54;;;;;;;6.28;2.50;;;;;;;12.67;88.14;101197.66;5068817;28;20046;-74
2021/10/04 10:19:22;;;;;;;7.85;2.38;;;;;;;12.81;88.79;101211.41;5069003;28;20032;-74
2021/10/04 10:21:48;;;;;;;7.00;2.00;;;;;;;12.91;88.58;101220.09;5068732;28;20489;-74
2021/10/04 10:24:28;;;;;;;7.40;2.97;;;;;;;12.89;88.44;101214.06;5052112;28;20044;-74
2021/10/04 10:27:00;;;;;;;12.88;2.28;;;;;;;13.03;88.19;101205.38;5068494;28;20066;-74
2021/10/04 10:29:28;;;;;;;10.15;2.17;;;;;;;12.96;87.99;101196.31;5052070;28;20047;-74
2021/10/04 10:31:57;;;;;;;7.35;1.90;;;;;;;13.01;88.31;101190.47;5068528;28;20044;-74
2021/10/04 10:34:42;;;;;;;6.22;1.70;;;;;;;13.08;87.75;101192.28;5051925;28;20041;-74
2021/10/04 10:37:23;;;;;;;5.70;2.03;;;;;;;13.19;88.23;101203.72;5068359;28;20028;-74
2021/10/04 10:40:00;;;;;;;5.05;2.30;;;;;;;13.23;87.68;101197.84;5069330;28;20033;-74
2021/10/04 10:42:28;;;;;;;7.78;2.30;;;;;;;13.38;87.53;101195.31;5051351;28;20147;-74
2021/10/04 10:44:57;;;;;;;12.40;2.90;;;;;;;13.48;87.38;101195.13;5051661;28;20062;-74
2021/10/04 10:47:38;;;;;;;6.15;1.70;;;;;;;13.51;85.96;101195.66;5068073;28;20040;-74
2021/10/04 10:50:39;;;;;;;6.70;1.98;;;;;;;13.49;85.93;101189.63;5068310;28;20056;-75
2021/10/04 10:53:20;;;;;;;5.43;2.00;;;;;;;13.50;86.04;101196.63;5068178;28;20036;-74
2021/10/04 10:55:54;;;;;;;6.38;1.90;;;;;;;13.64;85.98;101207.69;5068193;28;20476;-74
2021/10/04 10:58:23;;;;;;;7.10;2.10;;;;;;;13.48;86.30;101204.00;5048122;28;20126;-74
2021/10/04 11:00:48;;;;;;;5.10;1.95;;;;;;;13.43;86.86;101214.41;5064543;28;20111;-74
2021/10/04 11:03:20;;;;;;;4.60;1.93;;;;;;;13.46;86.04;101211.41;5051388;28;20123;-74
2021/10/04 11:05:56;;;;;;;10.07;2.05;;;;;;;13.46;86.09;101213.25;5067561;28;20109;-74
2021/10/04 11:08:45;;;;;;;8.68;2.30;;;;;;;13.40;86.15;101206.72;5068795;28;20210;-74
2021/10/04 11:11:14;;;;;;;6.40;2.17;;;;;;;13.36;86.78;101215.28;5066922;28;20040;-74
2021/10/04 11:13:56;;;;;;;4.03;2.00;;;;;;;13.46;86.13;101227.50;5067831;28;20031;-74
2021/10/04 11:16:24;;;;;;;5.78;1.90;;;;;;;13.36;86.06;101213.44;5068514;28;20029;-74
2021/10/04 11:18:51;;;;;;;3.35;1.85;;;;;;;13.59;84.65;101207.38;5068616;28;20152;-74
2021/10/04 11:21:22;;;;;;;11.27;2.42;;;;;;;13.69;84.21;101226.78;5066895;28;20077;-74
2021/10/04 11:23:52;;;;;;;7.68;2.40;;;;;;;13.99;83.98;101225.19;5034301;28;20063;-74